createdAt,value
2023-03-21T00:00:57.204Z,1.50
2023-03-21T00:03:26.069Z,1.70
2023-03-21T00:05:54.585Z,2.23
2023-03-21T00:08:23.458Z,1.97
2023-03-21T00:10:57.225Z,1.97
2023-03-21T00:13:28.352Z,2.00
2023-03-21T00:16:05.868Z,2.07
2023-03-21T00:18:46.359Z,1.90
2023-03-21T00:21:39.514Z,1.93
2023-03-21T00:24:04.957Z,1.80
2023-03-21T00:26:33.368Z,2.70
2023-03-21T00:29:03.188Z,3.37
2023-03-21T00:31:31.517Z,1.70
2023-03-21T00:33:59.825Z,1.80
2023-03-21T00:36:28.292Z,1.60
2023-03-21T00:38:57.150Z,2.40
2023-03-21T00:41:41.132Z,2.17
2023-03-21T00:44:13.728Z,2.17
2023-03-21T00:46:51.620Z,1.73
2023-03-21T00:49:25.978Z,1.93
2023-03-21T00:51:55.371Z,1.87
2023-03-21T00:54:26.087Z,1.70
2023-03-21T00:56:54.692Z,2.43
2023-03-21T00:59:24.392Z,2.50
2023-03-21T01:01:53.528Z,2.10
2023-03-21T01:04:26.740Z,1.90
2023-03-21T01:06:55.474Z,2.70
2023-03-21T01:09:24.760Z,2.10
2023-03-21T01:11:53.358Z,2.23
2023-03-21T01:14:23.729Z,1.97
2023-03-21T01:16:54.511Z,1.87
2023-03-21T01:19:37.677Z,1.90
2023-03-21T01:22:09.250Z,1.50
2023-03-21T01:24:40.464Z,2.07
2023-03-21T01:27:15.072Z,2.13
2023-03-21T01:29:43.562Z,2.67
2023-03-21T01:32:13.287Z,2.90
2023-03-21T01:34:41.617Z,2.43
2023-03-21T01:37:10.051Z,3.03
2023-03-21T01:39:38.400Z,3.47
2023-03-21T01:42:06.826Z,3.73
2023-03-21T01:44:50.029Z,2.70
2023-03-21T01:47:19.759Z,2.50
2023-03-21T01:49:49.660Z,1.80
2023-03-21T01:52:35.932Z,2.57
2023-03-21T01:55:07.199Z,2.10
2023-03-21T01:57:49.243Z,1.60
2023-03-21T02:00:21.984Z,2.27
2023-03-21T02:02:52.615Z,2.67
2023-03-21T02:05:23.516Z,1.80
2023-03-21T02:07:53.740Z,2.63
2023-03-21T02:10:22.281Z,2.50
2023-03-21T02:12:51.202Z,2.83
2023-03-21T02:15:19.604Z,2.70
2023-03-21T02:17:52.572Z,3.23
2023-03-21T02:20:38.637Z,3.63
2023-03-21T02:23:21.802Z,3.10
2023-03-21T02:26:28.510Z,2.47
2023-03-21T02:29:04.080Z,2.70
2023-03-21T02:31:38.079Z,2.33
2023-03-21T02:34:20.668Z,2.77
2023-03-21T02:37:04.454Z,2.77
2023-03-21T02:39:37.838Z,2.27
2023-03-21T02:42:09.499Z,2.07
2023-03-21T02:44:41.938Z,3.37
2023-03-21T02:47:13.781Z,2.33
2023-03-21T02:49:44.095Z,3.63
2023-03-21T02:52:28.301Z,2.40
2023-03-21T02:55:05.438Z,3.07
2023-03-21T02:57:42.543Z,2.43
2023-03-21T03:00:17.071Z,2.70
2023-03-21T03:02:46.006Z,2.90
2023-03-21T03:05:21.307Z,2.27
2023-03-21T03:07:59.256Z,3.57
2023-03-21T03:10:33.525Z,2.60
2023-03-21T03:13:06.663Z,2.70
2023-03-21T03:15:38.572Z,3.37
2023-03-21T03:18:12.773Z,3.43
2023-03-21T03:20:47.724Z,3.20
2023-03-21T03:23:22.901Z,3.53
2023-03-21T03:25:54.018Z,3.00
2023-03-21T03:28:25.019Z,3.47
2023-03-21T03:31:07.921Z,2.80
2023-03-21T03:33:38.217Z,3.00
2023-03-21T03:36:09.258Z,2.50
2023-03-21T03:38:40.191Z,4.90
2023-03-21T03:41:12.018Z,4.83
2023-03-21T03:43:42.665Z,4.43
2023-03-21T03:46:13.140Z,3.87
2023-03-21T03:48:46.678Z,3.97
2023-03-21T03:51:17.837Z,4.27
2023-03-21T03:53:48.405Z,4.10
2023-03-21T03:56:16.983Z,3.60
2023-03-21T03:58:46.251Z,3.50
2023-03-21T04:01:15.032Z,2.73
2023-03-21T04:04:01.022Z,3.60
2023-03-21T04:06:33.188Z,3.80
2023-03-21T04:09:13.612Z,3.30
2023-03-21T04:11:47.574Z,3.80
2023-03-21T04:14:15.982Z,2.70
2023-03-21T04:16:44.467Z,2.70
2023-03-21T04:19:12.824Z,3.30
2023-03-21T04:21:41.212Z,2.83
2023-03-21T04:24:11.937Z,3.00
2023-03-21T04:26:40.336Z,2.70
2023-03-21T04:29:09.179Z,3.33
2023-03-21T04:31:37.564Z,3.37
2023-03-21T04:34:09.760Z,2.53
2023-03-21T04:36:42.947Z,3.20
2023-03-21T04:39:13.233Z,2.80
2023-03-21T04:41:41.732Z,3.30
2023-03-21T04:44:10.613Z,2.63
2023-03-21T04:46:39.543Z,3.20
2023-03-21T04:49:08.121Z,3.23
2023-03-21T04:51:36.680Z,3.10
2023-03-21T04:54:05.932Z,2.83
2023-03-21T04:56:36.419Z,3.60
2023-03-21T04:59:08.489Z,2.87
2023-03-21T05:01:36.845Z,3.97
2023-03-21T05:04:05.946Z,3.37
2023-03-21T05:06:34.801Z,3.03
2023-03-21T05:09:05.397Z,3.30
2023-03-21T05:11:36.023Z,2.97
2023-03-21T05:14:05.791Z,2.90
2023-03-21T05:16:34.705Z,3.73
2023-03-21T05:19:04.981Z,3.00
2023-03-21T05:21:41.797Z,2.70
2023-03-21T05:24:12.302Z,3.30
2023-03-21T05:26:40.642Z,3.20
2023-03-21T05:29:11.261Z,3.93
2023-03-21T05:31:39.595Z,3.63
2023-03-21T05:34:07.935Z,2.50
2023-03-21T05:36:36.773Z,3.47
2023-03-21T05:39:05.643Z,3.13
2023-03-21T05:41:33.997Z,4.43
2023-03-21T05:44:02.366Z,3.83
2023-03-21T05:46:32.217Z,3.57
2023-03-21T05:49:00.929Z,3.67
2023-03-21T05:51:29.315Z,4.00
2023-03-21T05:53:57.697Z,4.70
2023-03-21T05:56:26.062Z,3.60
2023-03-21T05:58:54.514Z,4.67
2023-03-21T06:01:22.876Z,4.53
2023-03-21T06:03:52.339Z,5.33
2023-03-21T06:06:20.391Z,4.10
2023-03-21T06:08:48.858Z,4.73
2023-03-21T06:11:25.638Z,5.10
2023-03-21T06:13:53.757Z,4.43
2023-03-21T06:16:21.875Z,3.27
2023-03-21T06:18:50.053Z,3.63
2023-03-21T06:21:19.534Z,4.57
2023-03-21T06:23:47.931Z,4.90
2023-03-21T06:26:15.962Z,4.13
2023-03-21T06:28:44.047Z,4.00
2023-03-21T06:31:12.209Z,4.20
2023-03-21T06:33:40.279Z,4.53
2023-03-21T06:36:09.144Z,4.90
2023-03-21T06:38:38.612Z,4.57
2023-03-21T06:41:07.550Z,4.80
2023-03-21T06:43:36.314Z,4.30
2023-03-21T06:46:05.492Z,4.87
2023-03-21T06:48:34.216Z,3.60
2023-03-21T06:51:02.292Z,3.57
2023-03-21T06:53:30.420Z,4.53
2023-03-21T06:55:59.841Z,4.00
2023-03-21T06:58:28.098Z,3.67
2023-03-21T07:00:56.209Z,3.70
2023-03-21T07:03:24.643Z,4.17
2023-03-21T07:05:52.742Z,3.93
2023-03-21T07:08:20.864Z,3.50
2023-03-21T07:10:48.984Z,3.43
2023-03-21T07:13:18.438Z,2.53
2023-03-21T07:15:46.505Z,3.40
2023-03-21T07:18:14.610Z,3.47
2023-03-21T07:20:42.729Z,3.10
2023-03-21T07:23:10.763Z,2.50
2023-03-21T07:25:39.773Z,3.50
2023-03-21T07:28:09.215Z,3.40
2023-03-21T07:30:38.722Z,2.77
2023-03-21T07:33:07.120Z,2.47
2023-03-21T07:35:36.585Z,2.30
2023-03-21T07:38:05.342Z,2.53
2023-03-21T07:40:33.903Z,2.00
2023-03-21T07:45:31.060Z,2.30
2023-03-21T07:48:00.611Z,2.30
2023-03-21T07:50:28.870Z,1.70
2023-03-21T07:52:56.965Z,2.40
2023-03-21T07:55:25.124Z,2.13
2023-03-21T07:57:54.065Z,2.43
2023-03-21T08:00:23.859Z,2.37
2023-03-21T08:02:57.905Z,2.30
2023-03-21T08:05:30.117Z,2.60
2023-03-21T08:07:58.531Z,2.53
2023-03-21T08:10:27.287Z,2.67
2023-03-21T08:12:55.579Z,2.60
2023-03-21T08:15:23.849Z,2.20
2023-03-21T08:17:51.949Z,2.30
2023-03-21T08:20:22.004Z,2.60
2023-03-21T08:22:51.777Z,3.03
2023-03-21T08:25:22.113Z,1.77
2023-03-21T08:27:50.873Z,1.97
2023-03-21T08:30:21.640Z,2.87
2023-03-21T08:32:50.236Z,2.10
2023-03-21T08:35:19.465Z,2.30
2023-03-21T08:37:47.824Z,1.40
2023-03-21T08:40:18.464Z,1.87
2023-03-21T08:42:47.533Z,2.50
2023-03-21T08:45:18.445Z,1.70
2023-03-21T08:47:46.975Z,1.97
2023-03-21T08:50:16.774Z,2.23
2023-03-21T08:52:45.148Z,2.17
2023-03-21T08:55:14.085Z,2.80
2023-03-21T08:57:43.980Z,2.30
2023-03-21T09:00:14.642Z,2.13
2023-03-21T09:02:43.545Z,2.00
2023-03-21T09:05:12.700Z,2.10
2023-03-21T09:07:41.211Z,1.97
2023-03-21T09:10:26.160Z,2.20
2023-03-21T09:12:56.624Z,1.90
2023-03-21T09:15:25.612Z,1.43
2023-03-21T09:17:55.884Z,2.00
2023-03-21T09:20:31.057Z,1.60
2023-03-21T09:23:01.815Z,1.50
2023-03-21T09:25:31.422Z,1.80
2023-03-21T09:28:02.199Z,1.53
2023-03-21T09:30:31.521Z,1.53
2023-03-21T09:33:00.711Z,2.07
2023-03-21T09:35:29.576Z,1.53
2023-03-21T09:37:59.017Z,1.80
2023-03-21T09:40:34.191Z,1.87
2023-03-21T09:43:08.087Z,1.20
2023-03-21T09:45:39.733Z,1.60
2023-03-21T09:48:15.290Z,2.30
2023-03-21T09:50:45.163Z,1.70
2023-03-21T09:53:16.605Z,1.63
2023-03-21T09:55:44.995Z,1.60
2023-03-21T09:58:21.638Z,1.57
2023-03-21T10:00:53.663Z,2.10
2023-03-21T10:03:23.835Z,1.33
2023-03-21T10:05:57.524Z,1.73
2023-03-21T10:08:30.774Z,1.63
2023-03-21T10:11:02.382Z,1.80
2023-03-21T10:13:34.470Z,1.90
2023-03-21T10:16:03.807Z,1.83
2023-03-21T10:18:32.930Z,1.97
2023-03-21T10:21:08.270Z,1.73
2023-03-21T10:23:38.856Z,2.20
2023-03-21T10:26:08.799Z,1.37
2023-03-21T10:28:52.531Z,1.70
2023-03-21T10:31:25.445Z,1.73
2023-03-21T10:33:54.803Z,1.50
2023-03-21T10:36:25.825Z,1.47
2023-03-21T10:38:55.864Z,1.50
2023-03-21T10:41:24.254Z,1.47
2023-03-21T10:44:07.707Z,1.50
2023-03-21T10:46:36.662Z,1.50
2023-03-21T10:49:05.767Z,2.03
2023-03-21T10:51:35.490Z,1.83
2023-03-21T10:54:07.109Z,1.60
2023-03-21T10:56:38.441Z,1.57
2023-03-21T10:59:09.356Z,2.40
2023-03-21T11:01:39.363Z,1.83
2023-03-21T11:04:09.634Z,1.67
2023-03-21T11:06:40.497Z,1.87
2023-03-21T11:09:13.288Z,1.77
2023-03-21T11:11:43.611Z,1.83
2023-03-21T11:14:26.509Z,2.73
2023-03-21T11:16:56.364Z,2.00
2023-03-21T11:19:29.524Z,1.77
2023-03-21T11:22:00.712Z,2.27
2023-03-21T11:24:31.459Z,2.20
2023-03-21T11:27:01.691Z,1.93
2023-03-21T11:29:34.782Z,1.80
2023-03-21T11:32:03.531Z,1.93
2023-03-21T11:34:37.958Z,1.77
2023-03-21T11:37:07.641Z,1.70
2023-03-21T11:39:39.766Z,1.80
2023-03-21T11:42:27.844Z,1.70
2023-03-21T11:45:03.600Z,2.20
2023-03-21T11:47:32.930Z,2.23
2023-03-21T11:50:05.208Z,1.50
2023-03-21T11:52:39.211Z,2.17
2023-03-21T11:55:22.670Z,2.30
2023-03-21T11:57:58.106Z,2.10
2023-03-21T12:00:33.556Z,1.77
2023-03-21T12:03:21.892Z,2.27
2023-03-21T12:05:56.127Z,2.00
2023-03-21T12:08:32.629Z,2.03
2023-03-21T12:11:05.463Z,1.97
2023-03-21T12:13:40.607Z,2.53
2023-03-21T12:16:17.209Z,2.30
2023-03-21T12:18:52.377Z,1.87
2023-03-21T12:21:23.230Z,2.20
2023-03-21T12:24:01.027Z,2.20
2023-03-21T12:26:31.924Z,2.30
2023-03-21T12:29:08.076Z,2.00
2023-03-21T12:31:40.766Z,2.20
2023-03-21T12:34:19.191Z,2.00
2023-03-21T12:37:00.582Z,1.93
2023-03-21T12:39:30.555Z,1.83
2023-03-21T12:42:08.276Z,1.47
2023-03-21T12:44:38.490Z,1.23
2023-03-21T12:47:11.373Z,1.00
2023-03-21T12:49:41.280Z,1.20
2023-03-21T12:52:11.230Z,1.10
2023-03-21T12:54:41.434Z,1.20
2023-03-21T12:57:11.678Z,1.10
2023-03-21T12:59:41.440Z,0.93
2023-03-21T13:02:18.501Z,1.20
2023-03-21T13:04:49.396Z,1.10
2023-03-21T13:07:20.183Z,0.83
2023-03-21T13:09:51.329Z,0.70
2023-03-21T13:12:24.549Z,0.90
2023-03-21T13:15:01.493Z,1.10
2023-03-21T13:17:33.284Z,1.00
2023-03-21T13:20:07.377Z,1.17
2023-03-21T13:22:35.903Z,1.37
2023-03-21T13:25:06.772Z,1.10
2023-03-21T13:27:36.136Z,1.10
2023-03-21T13:30:06.876Z,1.63
2023-03-21T13:32:41.009Z,1.40
2023-03-21T13:35:16.485Z,1.23
2023-03-21T13:37:46.079Z,1.10
2023-03-21T13:40:22.132Z,1.20
2023-03-21T13:42:53.342Z,1.43
2023-03-21T13:45:26.583Z,1.47
2023-03-21T13:47:57.391Z,1.00
2023-03-21T13:50:27.700Z,1.47
2023-03-21T13:53:12.594Z,1.40
2023-03-21T13:55:42.501Z,1.10
2023-03-21T13:58:33.188Z,1.47
2023-03-21T14:01:13.975Z,1.20
2023-03-21T14:03:43.985Z,1.73
2023-03-21T14:06:12.782Z,1.43
2023-03-21T14:08:42.415Z,1.00
2023-03-21T14:11:14.615Z,1.40
2023-03-21T14:13:50.856Z,1.27
2023-03-21T14:16:20.447Z,0.80
2023-03-21T14:18:55.003Z,1.07
2023-03-21T14:21:25.387Z,1.00
2023-03-21T14:24:03.737Z,1.27
2023-03-21T14:26:33.575Z,1.00
2023-03-21T14:29:05.264Z,1.20
2023-03-21T14:31:34.398Z,1.00
2023-03-21T14:34:04.650Z,0.67
2023-03-21T14:36:35.238Z,0.97
2023-03-21T14:39:07.493Z,0.77
2023-03-21T14:41:44.802Z,0.80
2023-03-21T14:44:15.880Z,0.70
2023-03-21T14:46:45.151Z,0.70
2023-03-21T14:49:16.220Z,0.67
2023-03-21T14:51:46.879Z,0.70
2023-03-21T14:54:18.118Z,0.60
2023-03-21T14:56:51.786Z,1.00
2023-03-21T14:59:22.115Z,0.77
2023-03-21T15:01:51.608Z,1.20
2023-03-21T15:04:21.764Z,0.67
2023-03-21T15:06:51.613Z,0.83
2023-03-21T15:09:20.288Z,1.10
2023-03-21T15:11:51.788Z,0.90
2023-03-21T15:14:21.354Z,0.57
2023-03-21T15:16:50.082Z,1.00
2023-03-21T15:19:19.690Z,0.73
2023-03-21T15:21:50.720Z,0.80
2023-03-21T15:24:23.039Z,1.03
2023-03-21T15:26:52.211Z,1.10
2023-03-21T15:29:20.741Z,0.90
2023-03-21T15:31:49.768Z,1.30
2023-03-21T15:34:23.029Z,0.80
2023-03-21T15:36:57.392Z,0.90
2023-03-21T15:39:26.729Z,0.63
2023-03-21T15:41:58.824Z,1.17
2023-03-21T15:44:28.296Z,0.93
2023-03-21T15:46:56.824Z,0.80
2023-03-21T15:49:29.765Z,0.70
2023-03-21T15:52:03.236Z,1.00
2023-03-21T15:54:32.861Z,1.03
2023-03-21T15:57:04.606Z,1.20
2023-03-21T15:59:34.947Z,0.70
2023-03-21T16:02:04.044Z,0.90
2023-03-21T16:04:32.553Z,0.90
2023-03-21T16:07:04.084Z,0.70
2023-03-21T16:09:40.823Z,0.87
2023-03-21T16:12:11.908Z,0.87
2023-03-21T16:14:40.464Z,0.77
2023-03-21T16:24:13.311Z,1.10
2023-03-21T16:27:11.954Z,0.75
2023-03-21T16:29:41.824Z,0.93
2023-03-21T16:32:14.242Z,1.47
2023-03-21T16:34:42.943Z,1.13
2023-03-21T16:37:12.264Z,1.80
2023-03-21T16:39:40.847Z,1.53
2023-03-21T16:42:09.278Z,2.37
2023-03-21T16:44:39.182Z,2.10
2023-03-21T16:47:16.901Z,1.90
2023-03-21T16:49:45.463Z,1.83
2023-03-21T16:52:14.220Z,1.40
2023-03-21T16:54:43.336Z,1.57
2023-03-21T16:57:19.066Z,1.80
2023-03-21T16:59:47.593Z,2.20
2023-03-21T17:02:17.727Z,2.47
2023-03-21T17:04:46.274Z,2.20
2023-03-21T17:07:15.510Z,2.00
2023-03-21T17:09:44.345Z,1.93
2023-03-21T17:12:15.256Z,2.00
2023-03-21T17:14:43.912Z,1.90
2023-03-21T17:17:12.935Z,2.00
2023-03-21T17:19:42.991Z,2.30
2023-03-21T17:22:13.420Z,2.60
2023-03-21T17:24:42.872Z,2.40
2023-03-21T17:27:13.552Z,2.80
2023-03-21T17:29:42.025Z,1.90
2023-03-21T17:32:10.448Z,2.37
2023-03-21T17:34:38.848Z,2.30
2023-03-21T17:37:10.506Z,2.43
2023-03-21T17:39:38.913Z,2.10
2023-03-21T17:42:08.572Z,2.23
2023-03-21T17:44:37.276Z,2.03
2023-03-21T17:47:05.740Z,2.47
2023-03-21T17:49:34.166Z,2.57
2023-03-21T17:52:02.620Z,3.20
2023-03-21T17:54:32.324Z,2.67
2023-03-21T17:57:00.693Z,2.97
2023-03-21T17:59:29.129Z,3.03
2023-03-21T18:01:57.571Z,2.13
2023-03-21T18:04:27.125Z,2.37
2023-03-21T18:06:59.812Z,3.67
2023-03-21T18:09:28.933Z,1.83
2023-03-21T18:11:58.652Z,1.53
2023-03-21T18:14:29.118Z,1.97
2023-03-21T18:16:59.181Z,7.53
2023-03-21T18:19:27.856Z,3.77
2023-03-21T18:21:56.679Z,2.60
2023-03-21T18:24:25.057Z,2.57
2023-03-21T18:26:54.502Z,1.50
2023-03-21T18:32:12.910Z,1.57
2023-03-21T18:34:41.739Z,1.60
2023-03-21T18:37:13.150Z,1.60
2023-03-21T18:39:42.538Z,1.60
2023-03-21T18:42:17.446Z,1.77
2023-03-21T18:44:50.656Z,1.90
2023-03-21T18:47:19.572Z,1.87
2023-03-21T18:50:12.460Z,1.87
2023-03-21T18:52:36.752Z,1.50
2023-03-21T18:55:05.558Z,1.77
2023-03-21T18:57:37.990Z,1.57
2023-03-21T19:00:13.417Z,1.90
2023-03-21T19:02:46.273Z,4.40
2023-03-21T19:05:16.249Z,4.80
2023-03-21T19:07:44.896Z,5.10
2023-03-21T19:10:18.146Z,3.70
2023-03-21T19:12:47.025Z,2.50
2023-03-21T19:15:18.676Z,3.40
2023-03-21T19:20:35.982Z,3.33
2023-03-21T19:23:06.018Z,3.20
2023-03-21T19:25:34.474Z,4.17
2023-03-21T19:28:03.776Z,5.17
2023-03-21T19:30:34.220Z,4.13
2023-03-21T19:33:02.766Z,3.27
2023-03-21T19:35:31.527Z,3.00
2023-03-21T19:38:00.234Z,3.83
2023-03-21T19:40:28.674Z,3.97
2023-03-21T19:42:57.536Z,4.70
2023-03-21T19:45:26.551Z,5.40
2023-03-21T19:47:56.337Z,5.87
2023-03-21T19:50:55.338Z,3.90
2023-03-21T19:53:17.591Z,3.73
2023-03-21T19:55:46.482Z,2.70
2023-03-21T19:58:16.281Z,2.90
2023-03-21T20:00:44.678Z,1.90
2023-03-21T20:03:14.471Z,2.70
2023-03-21T20:05:43.229Z,3.20
2023-03-21T20:08:12.160Z,3.40
2023-03-21T20:10:41.055Z,3.73
2023-03-21T20:13:09.674Z,4.43
2023-03-21T20:15:45.885Z,4.40
2023-03-21T20:18:17.672Z,5.10
2023-03-21T20:20:46.315Z,5.47
2023-03-21T20:23:16.022Z,4.80
2023-03-21T20:25:46.062Z,4.27
2023-03-21T20:28:20.175Z,3.60
2023-03-21T20:30:54.119Z,2.90
2023-03-21T20:33:24.030Z,2.63
2023-03-21T20:38:45.649Z,4.60
2023-03-21T20:41:14.347Z,4.93
2023-03-21T20:46:31.305Z,3.27
2023-03-21T20:49:01.094Z,3.10
2023-03-21T20:52:44.576Z,2.70
2023-03-21T20:54:18.838Z,3.40
2023-03-21T20:56:47.876Z,3.23
2023-03-21T20:59:25.682Z,2.97
2023-03-21T21:01:55.764Z,3.40
2023-03-21T21:04:44.152Z,2.80
2023-03-21T21:07:15.947Z,2.10
2023-03-21T21:09:44.791Z,2.20
2023-03-21T21:12:14.012Z,2.20
2023-03-21T21:14:42.727Z,2.60
2023-03-21T21:17:30.735Z,2.23
2023-03-21T21:20:01.596Z,1.83
2023-03-21T21:22:30.095Z,1.90
2023-03-21T21:24:58.483Z,1.90
2023-03-21T21:27:26.905Z,2.47
2023-03-21T21:29:55.268Z,2.63
2023-03-21T21:32:23.751Z,2.10
2023-03-21T21:34:52.234Z,2.30
2023-03-21T21:37:22.650Z,2.40
2023-03-21T21:39:51.529Z,1.77
2023-03-21T21:42:20.621Z,2.40
2023-03-21T21:44:48.977Z,2.43
2023-03-21T21:47:17.359Z,2.27
2023-03-21T21:49:45.771Z,2.57
2023-03-21T21:52:14.443Z,2.27
2023-03-21T21:54:45.852Z,2.27
2023-03-21T21:57:14.738Z,2.37
2023-03-21T21:59:43.142Z,4.50
2023-03-21T22:02:14.034Z,3.80
2023-03-21T22:04:42.491Z,4.00
2023-03-21T22:07:14.456Z,2.60
2023-03-21T22:09:44.472Z,2.97
2023-03-21T22:12:12.871Z,3.47
2023-03-21T22:14:41.461Z,3.10
2023-03-21T22:17:09.929Z,4.13
2023-03-21T22:19:40.236Z,2.63
2023-03-21T22:22:09.015Z,2.27
2023-03-21T22:24:37.589Z,2.33
2023-03-21T22:27:07.714Z,2.50
2023-03-21T22:29:36.056Z,2.27
2023-03-21T22:32:04.510Z,3.60
2023-03-21T22:34:32.912Z,2.30
2023-03-21T22:37:02.644Z,1.97
2023-03-21T22:39:31.340Z,2.30
2023-03-21T22:42:03.377Z,2.30
2023-03-21T22:44:35.670Z,2.00
2023-03-21T22:47:04.436Z,1.47
2023-03-21T22:49:33.055Z,2.53
2023-03-21T22:52:03.118Z,2.17
2023-03-21T22:54:31.412Z,2.57
2023-03-21T22:56:59.828Z,2.00
2023-03-21T22:59:28.281Z,1.70
2023-03-21T23:01:57.811Z,1.87
2023-03-21T23:04:26.770Z,1.87
2023-03-21T23:06:55.118Z,2.03
2023-03-21T23:09:23.469Z,2.10
2023-03-21T23:11:52.044Z,2.00
2023-03-21T23:14:21.158Z,2.20
2023-03-21T23:16:50.589Z,2.03
2023-03-21T23:19:21.059Z,1.70
2023-03-21T23:21:50.202Z,1.90
2023-03-21T23:24:18.240Z,2.20
2023-03-21T23:26:46.564Z,2.07
2023-03-21T23:29:14.782Z,2.20
2023-03-21T23:31:42.881Z,1.80
2023-03-21T23:34:11.303Z,2.43
2023-03-21T23:36:40.949Z,2.13
2023-03-21T23:39:09.704Z,1.60
2023-03-21T23:41:37.788Z,2.13
2023-03-21T23:44:06.173Z,2.20
2023-03-21T23:46:34.357Z,1.73
2023-03-21T23:49:02.515Z,1.60
2023-03-21T23:51:30.651Z,2.17
2023-03-21T23:54:00.104Z,2.00
2023-03-21T23:56:29.986Z,2.30
2023-03-21T23:58:59.274Z,1.60
